createdAt,value
2019-03-13T00:00:41.681Z,0.50
2019-03-13T00:01:41.711Z,0.50
2019-03-13T00:02:41.738Z,0.50
2019-03-13T00:03:41.766Z,0.40
2019-03-13T00:04:41.797Z,0.50
2019-03-13T00:05:41.825Z,0.50
2019-03-13T00:06:41.853Z,0.50
2019-03-13T00:07:41.882Z,0.50
2019-03-13T00:08:41.909Z,0.50
2019-03-13T00:09:41.937Z,0.60
2019-03-13T00:10:41.964Z,0.50
2019-03-13T00:11:41.999Z,0.50
2019-03-13T00:12:42.022Z,0.50
2019-03-13T00:13:42.053Z,0.50
2019-03-13T00:14:42.078Z,0.50
2019-03-13T00:15:42.112Z,0.50
2019-03-13T00:16:42.134Z,0.50
2019-03-13T00:17:42.162Z,0.50
2019-03-13T00:18:42.193Z,0.50
2019-03-13T00:19:42.218Z,0.40
2019-03-13T00:20:42.249Z,0.50
2019-03-13T00:21:42.277Z,0.50
2019-03-13T00:22:42.354Z,0.50
2019-03-13T00:23:42.332Z,0.50
2019-03-13T00:24:42.361Z,0.60
2019-03-13T00:25:42.388Z,0.50
2019-03-13T00:26:42.415Z,0.40
2019-03-13T00:27:42.443Z,0.50
2019-03-13T00:28:42.472Z,0.50
2019-03-13T00:29:42.500Z,0.50
2019-03-13T00:30:42.527Z,0.50
2019-03-13T00:31:42.556Z,0.50
2019-03-13T00:32:42.583Z,0.50
2019-03-13T00:33:42.613Z,0.40
2019-03-13T00:34:42.640Z,0.50
2019-03-13T00:35:42.668Z,0.50
2019-03-13T00:36:42.697Z,0.40
2019-03-13T00:37:42.727Z,0.50
2019-03-13T00:38:42.754Z,0.40
2019-03-13T00:39:42.781Z,0.40
2019-03-13T00:40:42.809Z,0.40
2019-03-13T00:41:42.845Z,0.40
2019-03-13T00:42:42.864Z,0.40
2019-03-13T00:43:42.893Z,0.50
2019-03-13T00:44:42.921Z,0.50
2019-03-13T00:45:42.949Z,0.50
2019-03-13T00:46:42.977Z,0.40
2019-03-13T00:47:43.005Z,0.40
2019-03-13T00:48:43.034Z,0.40
2019-03-13T00:49:43.067Z,0.50
2019-03-13T00:50:43.089Z,0.50
2019-03-13T00:51:43.119Z,0.40
2019-03-13T00:52:43.145Z,0.40
2019-03-13T00:53:43.175Z,0.40
2019-03-13T00:54:43.203Z,0.40
2019-03-13T00:55:43.230Z,0.40
2019-03-13T00:56:43.258Z,0.50
2019-03-13T00:57:43.287Z,0.50
2019-03-13T00:58:43.364Z,0.50
2019-03-13T00:59:43.341Z,0.50
2019-03-13T01:00:43.369Z,0.40
2019-03-13T01:01:43.396Z,0.40
2019-03-13T01:02:43.425Z,0.50
2019-03-13T01:03:43.452Z,0.50
2019-03-13T01:04:43.482Z,0.50
2019-03-13T01:05:43.508Z,0.50
2019-03-13T01:06:43.535Z,0.60
2019-03-13T01:07:43.566Z,0.50
2019-03-13T01:08:43.593Z,0.50
2019-03-13T01:09:43.619Z,0.50
2019-03-13T01:10:43.688Z,0.50
2019-03-13T01:11:43.674Z,0.50
2019-03-13T01:12:43.703Z,0.40
2019-03-13T01:13:43.731Z,0.50
2019-03-13T01:14:43.757Z,0.40
2019-03-13T01:15:43.785Z,0.40
2019-03-13T01:16:43.814Z,0.50
2019-03-13T01:17:43.846Z,0.50
2019-03-13T01:18:43.876Z,0.40
2019-03-13T01:19:43.897Z,0.50
2019-03-13T01:20:43.925Z,0.40
2019-03-13T01:21:43.953Z,0.50
2019-03-13T01:22:43.979Z,0.50
2019-03-13T01:23:44.032Z,0.50
2019-03-13T01:24:44.034Z,0.40
2019-03-13T01:25:44.091Z,0.50
2019-03-13T01:26:44.120Z,0.50
2019-03-13T01:27:44.144Z,0.50
2019-03-13T01:28:44.378Z,0.40
2019-03-13T01:29:44.200Z,0.50
2019-03-13T01:30:44.934Z,0.40
2019-03-13T01:31:45.666Z,0.50
2019-03-13T01:32:44.277Z,0.50
2019-03-13T01:34:44.614Z,0.40
2019-03-13T01:36:44.388Z,0.50
2019-03-13T01:37:44.417Z,0.50
2019-03-13T01:38:44.446Z,0.50
2019-03-13T01:39:44.470Z,0.50
2019-03-13T01:40:44.474Z,0.50
2019-03-13T01:41:44.503Z,0.50
2019-03-13T01:42:44.531Z,0.50
2019-03-13T01:43:44.559Z,0.50
2019-03-13T01:44:44.585Z,0.50
2019-03-13T01:45:44.614Z,0.50
2019-03-13T01:46:44.640Z,0.50
2019-03-13T01:47:44.667Z,0.50
2019-03-13T01:48:44.697Z,0.50
2019-03-13T01:49:44.725Z,0.50
2019-03-13T01:50:44.751Z,0.50
2019-03-13T01:51:44.778Z,0.50
2019-03-13T01:52:44.817Z,0.50
2019-03-13T01:53:44.835Z,0.50
2019-03-13T01:54:44.862Z,0.60
2019-03-13T01:55:44.888Z,0.60
2019-03-13T01:56:44.916Z,0.70
2019-03-13T01:57:44.948Z,0.60
2019-03-13T01:58:44.974Z,0.70
2019-03-13T01:59:44.997Z,0.60
2019-03-13T02:00:45.028Z,0.70
2019-03-13T02:01:45.057Z,0.70
2019-03-13T02:02:45.081Z,0.80
2019-03-13T02:03:45.107Z,0.60
2019-03-13T02:04:45.135Z,0.60
2019-03-13T02:05:45.163Z,0.70
2019-03-13T02:06:45.188Z,0.70
2019-03-13T02:07:45.217Z,0.60
2019-03-13T02:08:45.245Z,0.60
2019-03-13T02:09:45.273Z,0.70
2019-03-13T02:10:45.354Z,0.70
2019-03-13T02:11:45.384Z,0.60
2019-03-13T02:12:45.356Z,0.80
2019-03-13T02:13:45.382Z,0.70
2019-03-13T02:14:45.435Z,0.60
2019-03-13T02:15:45.436Z,0.70
2019-03-13T02:16:45.487Z,0.70
2019-03-13T02:17:45.515Z,0.60
2019-03-13T02:18:45.542Z,0.70
2019-03-13T02:19:45.569Z,0.70
2019-03-13T02:20:45.596Z,0.70
2019-03-13T02:22:45.651Z,0.70
2019-03-13T02:23:45.882Z,0.70
2019-03-13T02:24:45.681Z,0.90
2019-03-13T02:25:45.709Z,0.90
2019-03-13T02:26:45.890Z,0.70
2019-03-13T02:27:45.766Z,0.80
2019-03-13T02:28:45.791Z,0.70
2019-03-13T02:29:45.818Z,1.00
2019-03-13T02:30:45.845Z,0.90
2019-03-13T02:31:45.873Z,0.70
2019-03-13T02:32:45.901Z,0.60
2019-03-13T02:33:45.928Z,0.70
2019-03-13T02:34:45.960Z,0.60
2019-03-13T02:35:45.983Z,0.70
2019-03-13T02:36:46.011Z,0.70
2019-03-13T02:37:46.040Z,0.70
2019-03-13T02:38:46.065Z,0.60
2019-03-13T02:39:46.095Z,0.70
2019-03-13T02:40:46.120Z,0.60
2019-03-13T02:41:46.147Z,0.70
2019-03-13T02:42:46.175Z,0.60
2019-03-13T02:43:46.204Z,0.60
2019-03-13T02:44:46.229Z,0.70
2019-03-13T02:45:46.257Z,0.70
2019-03-13T02:46:46.284Z,0.70
2019-03-13T02:47:46.311Z,0.60
2019-03-13T02:48:46.338Z,0.60
2019-03-13T02:49:46.416Z,0.70
2019-03-13T02:50:46.393Z,0.80
2019-03-13T02:51:46.423Z,0.70
2019-03-13T02:52:46.449Z,0.70
2019-03-13T02:53:46.475Z,0.70
2019-03-13T02:54:46.511Z,0.70
2019-03-13T02:55:46.531Z,0.60
2019-03-13T02:56:46.558Z,0.70
2019-03-13T02:57:46.589Z,0.80
2019-03-13T02:58:46.613Z,0.60
2019-03-13T02:59:46.641Z,0.80
2019-03-13T03:00:46.671Z,0.60
2019-03-13T03:01:46.694Z,0.60
2019-03-13T03:02:46.724Z,0.60
2019-03-13T03:03:46.751Z,0.90
2019-03-13T03:04:46.778Z,0.80
2019-03-13T03:05:46.809Z,0.60
2019-03-13T03:06:46.837Z,0.70
2019-03-13T03:07:46.868Z,0.80
2019-03-13T03:08:46.888Z,0.90
2019-03-13T03:09:46.917Z,0.80
2019-03-13T03:10:46.942Z,0.60
2019-03-13T03:11:46.970Z,0.60
2019-03-13T03:12:46.998Z,0.60
2019-03-13T03:13:47.026Z,0.80
2019-03-13T03:14:47.052Z,0.60
2019-03-13T03:15:47.078Z,0.60
2019-03-13T03:16:47.116Z,0.80
2019-03-13T03:17:47.160Z,0.70
2019-03-13T03:18:47.160Z,0.70
2019-03-13T03:19:47.188Z,0.70
2019-03-13T03:20:47.216Z,0.60
2019-03-13T03:21:47.247Z,0.60
2019-03-13T03:22:47.271Z,0.70
2019-03-13T03:23:47.299Z,0.60
2019-03-13T03:24:47.346Z,0.70
2019-03-13T03:25:47.355Z,0.60
2019-03-13T03:26:47.389Z,0.60
2019-03-13T03:27:47.409Z,0.60
2019-03-13T03:28:47.435Z,0.60
2019-03-13T03:29:47.462Z,0.60
2019-03-13T03:30:47.489Z,0.70
2019-03-13T03:31:47.516Z,0.60
2019-03-13T03:32:47.581Z,0.70
2019-03-13T03:33:47.578Z,0.70
2019-03-13T03:34:47.613Z,0.70
2019-03-13T03:35:47.635Z,0.80
2019-03-13T03:36:47.655Z,0.80
2019-03-13T03:37:47.691Z,0.80
2019-03-13T03:38:47.706Z,0.80
2019-03-13T03:39:47.733Z,0.80
2019-03-13T03:40:47.765Z,0.60
2019-03-13T03:41:47.788Z,0.60
2019-03-13T03:42:47.815Z,0.60
2019-03-13T03:43:47.842Z,0.70
2019-03-13T03:44:47.870Z,0.70
2019-03-13T03:45:47.898Z,0.60
2019-03-13T03:46:47.973Z,0.80
2019-03-13T03:47:48.145Z,0.80
2019-03-13T03:48:47.980Z,0.70
2019-03-13T03:49:48.005Z,0.70
2019-03-13T03:50:48.035Z,0.80
2019-03-13T03:51:48.204Z,0.80
2019-03-13T03:52:48.098Z,0.60
2019-03-13T03:53:48.115Z,0.70
2019-03-13T03:54:48.140Z,0.70
2019-03-13T03:55:48.168Z,0.70
2019-03-13T03:56:48.195Z,0.60
2019-03-13T03:57:48.221Z,0.60
2019-03-13T03:58:48.248Z,0.70
2019-03-13T03:59:48.277Z,0.70
2019-03-13T04:00:48.354Z,0.80
2019-03-13T04:01:48.331Z,0.60
2019-03-13T04:02:48.413Z,0.70
2019-03-13T04:03:48.385Z,0.70
2019-03-13T04:04:48.412Z,0.90
2019-03-13T04:05:48.438Z,1.00
2019-03-13T04:06:48.469Z,0.70
2019-03-13T04:07:48.492Z,0.70
2019-03-13T04:08:48.520Z,0.90
2019-03-13T04:09:48.550Z,0.90
2019-03-13T04:10:48.574Z,1.00
2019-03-13T04:11:48.605Z,0.90
2019-03-13T04:12:48.628Z,1.00
2019-03-13T04:13:48.663Z,0.70
2019-03-13T04:14:48.681Z,0.70
2019-03-13T04:15:48.709Z,0.80
2019-03-13T04:16:48.750Z,0.70
2019-03-13T04:17:48.770Z,0.60
2019-03-13T04:18:48.790Z,0.70
2019-03-13T04:19:48.817Z,0.70
2019-03-13T04:20:48.845Z,0.60
2019-03-13T04:21:48.871Z,0.60
2019-03-13T04:22:48.898Z,0.60
2019-03-13T04:23:49.005Z,0.70
2019-03-13T04:24:48.953Z,0.70
2019-03-13T04:25:48.979Z,0.60
2019-03-13T04:26:49.016Z,0.60
2019-03-13T04:27:49.042Z,0.70
2019-03-13T04:28:49.065Z,0.70
2019-03-13T04:29:49.088Z,0.60
2019-03-13T04:30:49.113Z,0.60
2019-03-13T04:31:49.141Z,0.70
2019-03-13T04:32:49.166Z,0.60
2019-03-13T04:33:49.196Z,0.60
2019-03-13T04:34:49.221Z,0.60
2019-03-13T04:35:49.254Z,0.70
2019-03-13T04:36:49.278Z,0.70
2019-03-13T04:37:49.306Z,0.60
2019-03-13T04:38:49.335Z,0.70
2019-03-13T04:39:49.357Z,0.70
2019-03-13T04:40:49.382Z,0.70
2019-03-13T04:41:49.409Z,0.70
2019-03-13T04:42:49.436Z,0.70
2019-03-13T04:43:49.514Z,0.60
2019-03-13T04:44:49.490Z,0.60
2019-03-13T04:45:49.517Z,0.70
2019-03-13T04:46:49.542Z,0.70
2019-03-13T04:47:49.574Z,0.50
2019-03-13T04:48:49.597Z,0.60
2019-03-13T04:49:49.623Z,0.60
2019-03-13T04:50:49.650Z,0.60
2019-03-13T04:51:49.676Z,0.70
2019-03-13T04:52:49.706Z,0.60
2019-03-13T04:53:49.731Z,0.60
2019-03-13T04:54:49.757Z,0.70
2019-03-13T04:55:52.349Z,0.60
2019-03-13T04:56:49.810Z,0.60
2019-03-13T04:57:49.840Z,0.70
2019-03-13T04:58:49.864Z,0.70
2019-03-13T04:59:49.889Z,0.70
2019-03-13T05:00:49.917Z,0.70
2019-03-13T05:01:49.947Z,0.60
2019-03-13T05:02:49.969Z,0.70
2019-03-13T05:03:49.997Z,0.70
2019-03-13T05:04:50.023Z,0.60
2019-03-13T05:05:50.051Z,0.70
2019-03-13T05:06:50.075Z,0.70
2019-03-13T05:07:50.103Z,0.70
2019-03-13T05:08:50.129Z,0.70
2019-03-13T05:09:50.156Z,0.70
2019-03-13T05:10:50.183Z,0.60
2019-03-13T05:11:50.209Z,0.70
2019-03-13T05:12:50.257Z,0.90
2019-03-13T05:13:50.264Z,0.80
2019-03-13T05:14:50.289Z,0.70
2019-03-13T05:15:50.316Z,0.80
2019-03-13T05:16:50.344Z,0.70
2019-03-13T05:17:50.368Z,0.80
2019-03-13T05:18:50.393Z,0.80
2019-03-13T05:19:50.420Z,0.70
2019-03-13T05:20:50.449Z,0.80
2019-03-13T05:21:50.475Z,0.80
2019-03-13T05:22:50.499Z,1.70
2019-03-13T05:23:50.528Z,1.60
2019-03-13T05:24:50.553Z,0.80
2019-03-13T05:25:50.579Z,0.80
2019-03-13T05:26:50.606Z,0.90
2019-03-13T05:27:50.633Z,0.80
2019-03-13T05:28:50.660Z,0.80
2019-03-13T05:29:50.692Z,0.90
2019-03-13T05:30:53.048Z,0.80
2019-03-13T05:31:50.738Z,1.00
2019-03-13T05:32:50.766Z,0.90
2019-03-13T05:33:50.803Z,1.00
2019-03-13T05:34:50.820Z,0.80
2019-03-13T05:35:50.845Z,1.00
2019-03-13T05:36:50.876Z,0.80
2019-03-13T05:37:51.004Z,0.70
2019-03-13T05:38:50.926Z,0.80
2019-03-13T05:39:50.953Z,0.80
2019-03-13T05:40:50.978Z,0.80
2019-03-13T05:41:51.007Z,0.90
2019-03-13T05:42:51.036Z,0.90
2019-03-13T05:43:51.060Z,0.80
2019-03-13T05:44:51.086Z,0.90
2019-03-13T05:45:51.114Z,0.90
2019-03-13T05:46:51.139Z,0.90
2019-03-13T05:47:51.169Z,0.70
2019-03-13T05:48:51.194Z,1.00
2019-03-13T05:49:51.220Z,1.00
2019-03-13T05:50:51.247Z,0.90
2019-03-13T05:51:51.275Z,0.80
2019-03-13T05:52:51.301Z,0.90
2019-03-13T05:53:51.329Z,0.90
2019-03-13T05:54:51.353Z,0.90
2019-03-13T05:55:51.381Z,1.00
2019-03-13T05:56:51.407Z,0.90
2019-03-13T05:57:51.435Z,0.90
2019-03-13T05:58:51.460Z,0.90
2019-03-13T05:59:51.488Z,0.90
2019-03-13T06:00:51.514Z,0.90
2019-03-13T06:01:51.541Z,0.90
2019-03-13T06:02:51.579Z,1.50
2019-03-13T06:03:51.599Z,1.40
2019-03-13T06:04:51.621Z,1.30
2019-03-13T06:05:51.647Z,0.90
2019-03-13T06:06:51.672Z,1.00
2019-03-13T06:07:51.701Z,0.80
2019-03-13T06:08:51.732Z,0.90
2019-03-13T06:09:51.754Z,0.80
2019-03-13T06:10:51.781Z,0.80
2019-03-13T06:11:51.807Z,1.00
2019-03-13T06:12:51.833Z,1.10
2019-03-13T06:13:51.863Z,0.90
2019-03-13T06:14:51.886Z,0.80
2019-03-13T06:15:51.914Z,0.90
2019-03-13T06:16:51.942Z,1.10
2019-03-13T06:17:51.969Z,0.90
2019-03-13T06:18:53.105Z,0.80
2019-03-13T06:19:52.026Z,0.90
2019-03-13T06:20:52.143Z,0.90
2019-03-13T06:21:52.073Z,1.20
2019-03-13T06:22:52.100Z,0.90
2019-03-13T06:23:52.128Z,1.40
2019-03-13T06:24:52.155Z,1.40
2019-03-13T06:25:52.181Z,1.40
2019-03-13T06:26:52.206Z,2.10
2019-03-13T06:27:52.236Z,1.10
2019-03-13T06:28:52.261Z,1.00
2019-03-13T06:29:52.287Z,1.10
2019-03-13T06:30:52.315Z,1.20
2019-03-13T06:31:52.342Z,2.40
2019-03-13T06:32:52.439Z,3.50
2019-03-13T06:33:52.395Z,4.40
2019-03-13T06:34:52.422Z,2.50
2019-03-13T06:35:52.473Z,2.30
2019-03-13T06:36:52.482Z,1.00
2019-03-13T06:37:52.502Z,1.10
2019-03-13T06:38:52.528Z,0.80
2019-03-13T06:39:52.556Z,0.80
2019-03-13T06:40:52.585Z,0.90
2019-03-13T06:41:52.611Z,0.80
2019-03-13T06:42:52.635Z,1.00
2019-03-13T06:43:52.663Z,0.90
2019-03-13T06:44:52.691Z,0.90
2019-03-13T06:45:52.717Z,1.00
2019-03-13T06:46:52.744Z,1.00
2019-03-13T06:47:52.774Z,0.80
2019-03-13T06:48:52.799Z,0.80
2019-03-13T06:49:52.825Z,0.90
2019-03-13T06:50:52.850Z,0.80
2019-03-13T06:51:52.881Z,0.80
2019-03-13T06:52:52.908Z,1.30
2019-03-13T06:53:52.936Z,0.90
2019-03-13T06:54:52.960Z,1.20
2019-03-13T06:55:52.988Z,0.80
2019-03-13T06:56:53.015Z,0.90
2019-03-13T06:57:53.043Z,1.10
2019-03-13T06:58:53.068Z,0.90
2019-03-13T06:59:53.095Z,0.90
2019-03-13T07:00:53.122Z,0.90
2019-03-13T07:01:53.152Z,1.10
2019-03-13T07:02:53.177Z,1.10
2019-03-13T07:03:53.204Z,0.80
2019-03-13T07:04:53.232Z,1.10
2019-03-13T07:05:53.258Z,0.90
2019-03-13T07:06:53.285Z,1.30
2019-03-13T07:07:53.311Z,1.20
2019-03-13T07:08:53.339Z,1.10
2019-03-13T07:09:53.364Z,1.10
2019-03-13T07:10:53.390Z,1.00
2019-03-13T07:11:53.419Z,1.10
2019-03-13T07:12:53.447Z,0.80
2019-03-13T07:13:53.473Z,0.90
2019-03-13T07:14:53.499Z,0.90
2019-03-13T07:15:53.527Z,0.80
2019-03-13T07:16:53.554Z,0.90
2019-03-13T07:17:53.582Z,1.10
2019-03-13T07:18:53.607Z,1.30
2019-03-13T07:19:53.634Z,1.00
2019-03-13T07:20:53.663Z,1.00
2019-03-13T07:21:53.690Z,1.10
2019-03-13T07:22:53.716Z,0.90
2019-03-13T07:23:53.743Z,0.80
2019-03-13T07:24:53.770Z,1.50
2019-03-13T07:25:53.796Z,1.10
2019-03-13T07:26:53.823Z,1.30
2019-03-13T07:27:53.851Z,1.00
2019-03-13T07:28:53.880Z,1.50
2019-03-13T07:29:53.907Z,1.30
2019-03-13T07:30:53.938Z,1.20
2019-03-13T07:31:53.962Z,1.30
2019-03-13T07:32:56.515Z,1.10
2019-03-13T07:33:54.017Z,1.30
2019-03-13T07:34:54.053Z,1.30
2019-03-13T07:35:54.072Z,1.10
2019-03-13T07:36:54.099Z,1.30
2019-03-13T07:37:54.124Z,1.30
2019-03-13T07:38:54.154Z,1.00
2019-03-13T07:39:54.181Z,1.60
2019-03-13T07:40:54.209Z,1.40
2019-03-13T07:41:54.236Z,1.10
2019-03-13T07:42:54.262Z,1.10
2019-03-13T07:43:54.292Z,1.20
2019-03-13T07:44:54.317Z,1.50
2019-03-13T07:45:54.396Z,1.90
2019-03-13T07:46:54.374Z,1.10
2019-03-13T07:47:54.400Z,1.10
2019-03-13T07:48:54.477Z,1.10
2019-03-13T07:49:54.523Z,1.20
2019-03-13T07:50:54.485Z,0.90
2019-03-13T07:51:54.561Z,1.10
2019-03-13T07:52:54.542Z,1.60
2019-03-13T07:53:54.570Z,1.10
2019-03-13T07:54:54.595Z,1.00
2019-03-13T07:55:54.623Z,1.10
2019-03-13T07:56:54.650Z,1.20
2019-03-13T07:57:54.679Z,1.40
2019-03-13T07:58:54.706Z,1.50
2019-03-13T07:59:54.736Z,1.40
2019-03-13T08:00:54.765Z,1.30
2019-03-13T08:01:54.793Z,1.20
2019-03-13T08:02:54.820Z,1.10
2019-03-13T08:03:54.874Z,1.10
2019-03-13T08:04:54.883Z,0.90
2019-03-13T08:05:54.906Z,1.10
2019-03-13T08:06:54.948Z,1.60
2019-03-13T08:07:54.962Z,1.00
2019-03-13T08:08:54.992Z,1.30
2019-03-13T08:09:55.041Z,1.10
2019-03-13T08:10:55.051Z,1.10
2019-03-13T08:11:55.080Z,1.30
2019-03-13T08:12:55.108Z,1.10
2019-03-13T08:13:55.141Z,1.10
2019-03-13T08:14:55.166Z,1.10
2019-03-13T08:15:55.200Z,0.80
2019-03-13T08:16:55.226Z,1.10
2019-03-13T08:17:55.254Z,1.20
2019-03-13T08:18:55.281Z,1.20
2019-03-13T08:19:55.314Z,1.40
2019-03-13T08:20:55.343Z,1.40
2019-03-13T08:21:55.372Z,1.20
2019-03-13T08:22:55.400Z,1.20
2019-03-13T08:23:55.431Z,1.10
2019-03-13T08:24:55.459Z,1.10
2019-03-13T08:25:55.490Z,1.10
2019-03-13T08:26:55.519Z,1.20
2019-03-13T08:27:55.549Z,1.20
2019-03-13T08:28:55.581Z,0.90
2019-03-13T08:29:55.608Z,1.00
2019-03-13T08:30:55.638Z,1.10
2019-03-13T08:31:55.666Z,1.10
2019-03-13T08:32:55.697Z,1.10
2019-03-13T08:33:55.728Z,1.30
2019-03-13T08:34:55.756Z,1.20
2019-03-13T08:35:55.789Z,1.10
2019-03-13T08:36:55.816Z,1.00
2019-03-13T08:37:55.847Z,1.10
2019-03-13T08:38:55.876Z,0.90
2019-03-13T08:39:55.906Z,1.00
2019-03-13T08:40:55.936Z,1.00
2019-03-13T08:41:55.967Z,1.30
2019-03-13T08:42:55.996Z,0.90
2019-03-13T08:43:56.026Z,0.80
2019-03-13T08:44:58.810Z,1.00
2019-03-13T08:45:56.087Z,1.20
2019-03-13T08:46:56.119Z,1.20
2019-03-13T08:47:56.146Z,1.20
2019-03-13T08:48:56.187Z,1.10
2019-03-13T08:49:56.206Z,1.00
2019-03-13T08:50:56.239Z,1.00
2019-03-13T08:51:56.267Z,1.00
2019-03-13T08:52:56.296Z,1.10
2019-03-13T08:53:56.447Z,1.00
2019-03-13T08:54:56.355Z,1.10
2019-03-13T08:55:56.385Z,0.90
2019-03-13T08:56:56.416Z,1.00
2019-03-13T08:57:56.445Z,1.00
2019-03-13T08:58:56.474Z,0.90
2019-03-13T08:59:56.503Z,1.20
2019-03-13T09:00:56.532Z,0.90
2019-03-13T09:01:56.562Z,0.90
2019-03-13T09:02:56.594Z,1.20
2019-03-13T09:03:56.624Z,0.90
2019-03-13T09:04:56.654Z,1.10
2019-03-13T09:05:56.685Z,0.90
2019-03-13T09:06:56.718Z,1.00
2019-03-13T09:07:56.749Z,1.00
2019-03-13T09:08:56.782Z,1.00
2019-03-13T09:09:56.907Z,1.00
2019-03-13T09:10:56.845Z,1.00
2019-03-13T09:11:56.877Z,0.90
2019-03-13T09:13:01.398Z,1.30
2019-03-13T09:13:56.947Z,1.10
2019-03-13T09:14:56.977Z,1.00
2019-03-13T09:15:57.011Z,1.00
2019-03-13T09:16:57.044Z,1.20
2019-03-13T09:17:57.078Z,1.10
2019-03-13T09:18:57.112Z,1.00
2019-03-13T09:19:57.147Z,1.20
2019-03-13T09:20:57.182Z,1.10
2019-03-13T09:21:57.215Z,1.20
2019-03-13T09:22:57.251Z,1.00
2019-03-13T09:23:57.284Z,1.40
2019-03-13T09:25:10.724Z,1.10
2019-03-13T09:25:57.352Z,1.10
2019-03-13T09:26:57.386Z,0.90
2019-03-13T09:27:57.420Z,1.10
2019-03-13T09:28:57.455Z,1.30
2019-03-13T09:29:57.490Z,1.30
2019-03-13T09:30:57.523Z,1.40
2019-03-13T09:31:57.561Z,1.20
2019-03-13T09:32:57.590Z,1.30
2019-03-13T09:33:57.625Z,1.00
2019-03-13T09:34:57.657Z,1.40
2019-03-13T09:35:57.740Z,1.20
2019-03-13T09:36:57.725Z,1.40
2019-03-13T09:37:57.759Z,1.70
2019-03-13T09:38:57.793Z,1.10
2019-03-13T09:39:57.827Z,1.10
2019-03-13T09:40:57.862Z,1.10
2019-03-13T09:41:57.898Z,1.80
2019-03-13T09:42:57.932Z,1.10
2019-03-13T09:43:59.866Z,1.30
2019-03-13T09:44:58.004Z,1.20
2019-03-13T09:45:58.039Z,1.20
2019-03-13T09:46:58.077Z,1.30
2019-03-13T09:47:58.108Z,1.30
2019-03-13T09:48:58.143Z,1.50
2019-03-13T09:49:58.178Z,1.30
2019-03-13T09:50:58.211Z,1.20
2019-03-13T09:51:58.248Z,1.50
2019-03-13T09:52:58.335Z,1.60
2019-03-13T09:53:58.316Z,1.00
2019-03-13T09:54:58.351Z,1.50
2019-03-13T09:55:58.385Z,1.60
2019-03-13T09:56:58.424Z,1.40
2019-03-13T09:57:58.454Z,1.60
2019-03-13T09:58:58.487Z,1.30
2019-03-13T09:59:58.524Z,1.50
2019-03-13T10:00:58.557Z,1.50
2019-03-13T10:01:58.591Z,1.80
2019-03-13T10:02:58.653Z,1.50
2019-03-13T10:03:58.662Z,1.50
2019-03-13T10:04:58.747Z,1.40
2019-03-13T10:05:58.730Z,1.10
2019-03-13T10:06:58.857Z,1.60
2019-03-13T10:07:58.799Z,1.40
2019-03-13T10:08:58.833Z,1.50
2019-03-13T10:09:58.878Z,1.40
2019-03-13T10:10:58.901Z,1.40
2019-03-13T10:11:58.933Z,1.60
2019-03-13T10:12:58.974Z,1.40
2019-03-13T10:13:59.002Z,1.30
2019-03-13T10:14:59.057Z,1.40
2019-03-13T10:15:59.069Z,1.50
2019-03-13T10:17:09.759Z,1.50
2019-03-13T10:17:59.139Z,1.10
2019-03-13T10:18:59.168Z,1.40
2019-03-13T10:19:59.202Z,1.60
2019-03-13T10:20:59.234Z,1.70
2019-03-13T10:21:59.265Z,1.60
2019-03-13T10:22:59.297Z,1.50
2019-03-13T10:23:59.329Z,1.50
2019-03-13T10:24:59.362Z,1.50
2019-03-13T10:25:59.394Z,1.80
2019-03-13T10:26:59.426Z,1.40
2019-03-13T10:27:59.460Z,1.50
2019-03-13T10:28:59.491Z,1.70
2019-03-13T10:29:59.524Z,1.40
2019-03-13T10:30:59.555Z,1.50
2019-03-13T10:31:59.598Z,1.50
2019-03-13T10:32:59.670Z,1.40
2019-03-13T10:33:59.654Z,1.20
2019-03-13T10:34:59.686Z,1.60
2019-03-13T10:35:59.719Z,1.40
2019-03-13T10:36:59.753Z,1.20
2019-03-13T10:38:12.810Z,1.90
2019-03-13T10:38:59.818Z,1.40
2019-03-13T10:39:59.851Z,1.50
2019-03-13T10:40:59.885Z,1.20
2019-03-13T10:41:59.922Z,1.50
2019-03-13T10:42:59.953Z,1.80
2019-03-13T10:43:59.981Z,1.80
2019-03-13T10:45:00.013Z,1.60
2019-03-13T10:46:00.047Z,1.60
2019-03-13T10:47:00.076Z,1.80
2019-03-13T10:48:00.112Z,1.30
2019-03-13T10:49:00.143Z,1.80
2019-03-13T10:50:00.426Z,2.00
2019-03-13T10:51:00.206Z,1.40
2019-03-13T10:52:00.237Z,1.60
2019-03-13T10:53:00.270Z,1.70
2019-03-13T10:54:00.302Z,1.90
2019-03-13T10:55:00.449Z,1.30
2019-03-13T10:56:00.364Z,1.40
2019-03-13T10:57:01.671Z,1.60
2019-03-13T10:58:00.432Z,1.60
2019-03-13T10:59:00.460Z,1.30
2019-03-13T11:00:00.493Z,1.40
2019-03-13T11:01:00.531Z,1.50
2019-03-13T11:02:00.558Z,1.20
2019-03-13T11:03:00.592Z,1.40
2019-03-13T11:04:00.628Z,1.50
2019-03-13T11:05:00.669Z,1.70
2019-03-13T11:06:00.697Z,1.50
2019-03-13T11:07:00.750Z,1.40
2019-03-13T11:08:00.766Z,1.40
2019-03-13T11:09:00.801Z,1.30
2019-03-13T11:10:00.837Z,1.70
2019-03-13T11:11:00.873Z,1.50
2019-03-13T11:12:00.927Z,1.50
2019-03-13T11:13:00.946Z,1.50
2019-03-13T11:14:14.439Z,1.40
2019-03-13T11:15:01.012Z,1.50
2019-03-13T11:16:01.049Z,1.30
2019-03-13T11:17:01.084Z,1.80
2019-03-13T11:18:01.119Z,1.30
2019-03-13T11:19:01.151Z,1.50
2019-03-13T11:20:01.186Z,1.60
2019-03-13T11:21:01.220Z,1.50
2019-03-13T11:22:01.254Z,1.30
2019-03-13T11:23:01.288Z,1.80
2019-03-13T11:24:01.374Z,1.40
2019-03-13T11:25:01.354Z,1.70
2019-03-13T11:26:01.388Z,1.70
2019-03-13T11:27:01.423Z,1.40
2019-03-13T11:28:01.455Z,1.50
2019-03-13T11:29:01.492Z,1.60
2019-03-13T11:30:01.521Z,1.40
2019-03-13T11:31:01.552Z,1.20
2019-03-13T11:32:01.583Z,1.40
2019-03-13T11:33:01.616Z,1.40
2019-03-13T11:34:01.649Z,1.50
2019-03-13T11:35:01.681Z,1.30
2019-03-13T11:36:01.714Z,1.30
2019-03-13T11:37:01.748Z,1.70
2019-03-13T11:38:01.778Z,1.60
2019-03-13T11:39:01.811Z,1.60
2019-03-13T11:40:01.844Z,1.60
2019-03-13T11:41:01.877Z,1.30
2019-03-13T11:42:01.911Z,1.30
2019-03-13T11:43:01.943Z,1.30
2019-03-13T11:44:01.978Z,1.40
2019-03-13T11:45:02.023Z,1.40
2019-03-13T11:46:02.046Z,1.20
2019-03-13T11:47:02.078Z,1.60
2019-03-13T11:48:02.113Z,1.50
2019-03-13T11:49:02.147Z,1.60
2019-03-13T11:50:02.180Z,1.80
2019-03-13T11:51:02.216Z,1.40
2019-03-13T11:52:02.247Z,1.30
2019-03-13T11:53:02.280Z,1.50
2019-03-13T11:54:02.317Z,1.60
2019-03-13T11:55:02.351Z,1.80
2019-03-13T11:56:02.381Z,1.80
2019-03-13T11:57:02.413Z,2.30
2019-03-13T11:58:02.447Z,1.80
2019-03-13T11:59:02.482Z,1.50
2019-03-13T12:00:02.512Z,1.40
2019-03-13T12:01:02.543Z,1.40
2019-03-13T12:02:02.578Z,1.50
2019-03-13T12:03:02.607Z,1.60
2019-03-13T12:04:02.638Z,1.60
2019-03-13T12:05:02.671Z,1.80
2019-03-13T12:06:02.704Z,1.90
2019-03-13T12:07:02.734Z,1.50
2019-03-13T12:08:02.767Z,2.60
2019-03-13T12:09:02.805Z,1.90
2019-03-13T12:10:02.829Z,2.20
2019-03-13T12:11:02.860Z,1.80
2019-03-13T12:12:02.895Z,2.40
2019-03-13T12:13:02.921Z,1.90
2019-03-13T12:14:02.954Z,2.10
2019-03-13T12:15:02.984Z,2.00
2019-03-13T12:16:03.015Z,2.10
2019-03-13T12:17:03.071Z,2.10
2019-03-13T12:18:03.076Z,1.60
2019-03-13T12:19:03.107Z,2.20
2019-03-13T12:20:03.137Z,1.80
2019-03-13T12:21:03.168Z,2.20
2019-03-13T12:22:03.201Z,2.40
2019-03-13T12:23:03.228Z,2.00
2019-03-13T12:24:03.261Z,1.90
2019-03-13T12:25:03.287Z,2.10
2019-03-13T12:26:03.608Z,1.60
2019-03-13T12:27:03.347Z,1.80
2019-03-13T12:28:03.376Z,1.90
2019-03-13T12:29:03.406Z,2.10
2019-03-13T12:30:03.438Z,2.00
2019-03-13T12:31:03.474Z,2.30
2019-03-13T12:32:03.497Z,2.00
2019-03-13T12:33:03.526Z,2.00
2019-03-13T12:34:03.556Z,2.40
2019-03-13T12:35:03.587Z,2.10
2019-03-13T12:36:03.614Z,1.70
2019-03-13T12:37:03.645Z,1.80
2019-03-13T12:38:03.679Z,1.90
2019-03-13T12:39:03.705Z,2.20
2019-03-13T12:40:03.736Z,2.80
2019-03-13T12:41:03.770Z,2.40
2019-03-13T12:42:03.797Z,2.10
2019-03-13T12:43:03.832Z,1.90
2019-03-13T12:44:03.862Z,1.90
2019-03-13T12:45:03.898Z,1.80
2019-03-13T12:46:03.926Z,2.30
2019-03-13T12:47:03.956Z,1.90
2019-03-13T12:48:16.261Z,2.00
2019-03-13T12:49:04.026Z,1.90
2019-03-13T12:50:04.057Z,1.70
2019-03-13T12:51:04.088Z,2.00
2019-03-13T12:52:04.122Z,2.00
2019-03-13T12:53:04.156Z,1.90
2019-03-13T12:54:04.246Z,2.30
2019-03-13T12:55:04.225Z,1.70
2019-03-13T12:56:04.259Z,1.70
2019-03-13T12:57:04.337Z,1.80
2019-03-13T12:58:04.331Z,1.70
2019-03-13T12:59:04.367Z,1.60
2019-03-13T13:00:04.403Z,1.90
2019-03-13T13:01:04.449Z,1.60
2019-03-13T13:02:04.476Z,1.50
2019-03-13T13:03:04.512Z,2.10
2019-03-13T13:04:04.550Z,1.80
2019-03-13T13:05:04.587Z,1.40
2019-03-13T13:06:04.623Z,1.70
2019-03-13T13:07:04.663Z,2.30
2019-03-13T13:08:04.726Z,1.60
2019-03-13T13:09:04.739Z,1.50
2019-03-13T13:10:04.785Z,1.60
2019-03-13T13:11:04.826Z,1.20
2019-03-13T13:12:04.856Z,1.40
2019-03-13T13:13:04.921Z,1.50
2019-03-13T13:14:05.091Z,1.20
2019-03-13T13:15:04.978Z,1.20
2019-03-13T13:16:05.018Z,1.30
2019-03-13T13:17:05.061Z,1.10
2019-03-13T13:18:05.104Z,1.00
2019-03-13T13:19:05.141Z,1.40
2019-03-13T13:20:05.183Z,1.30
2019-03-13T13:21:05.227Z,1.60
2019-03-13T13:22:05.267Z,1.30